createdAt,value
2023-01-31T00:01:36.299Z,42.22
2023-01-31T00:04:06.530Z,41.13
2023-01-31T00:06:37.358Z,41.65
2023-01-31T00:09:07.141Z,39.07
2023-01-31T00:11:35.146Z,38.30
2023-01-31T00:14:04.669Z,46.97
2023-01-31T00:16:32.608Z,48.20
2023-01-31T00:19:00.528Z,46.58
2023-01-31T00:21:30.075Z,42.22
2023-01-31T00:23:58.459Z,39.40
2023-01-31T00:26:32.031Z,44.08
2023-01-31T00:29:02.350Z,38.22
2023-01-31T00:31:31.848Z,40.65
2023-01-31T00:33:59.836Z,40.17
2023-01-31T00:36:29.973Z,44.75
2023-01-31T00:38:59.717Z,41.90
2023-01-31T00:41:29.221Z,46.05
2023-01-31T00:43:57.609Z,42.90
2023-01-31T00:46:25.552Z,41.95
2023-01-31T00:48:53.844Z,37.75
2023-01-31T00:51:22.194Z,44.97
2023-01-31T00:53:50.428Z,39.90
2023-01-31T00:56:20.509Z,43.08
2023-01-31T00:58:47.837Z,41.85
2023-01-31T01:01:21.174Z,43.40
2023-01-31T01:03:49.096Z,41.95
2023-01-31T01:06:17.613Z,41.92
2023-01-31T01:08:45.929Z,42.25
2023-01-31T01:11:13.268Z,40.08
2023-01-31T01:13:41.497Z,39.15
2023-01-31T01:16:13.899Z,37.05
2023-01-31T01:18:41.785Z,38.92
2023-01-31T01:21:21.164Z,42.25
2023-01-31T01:23:50.593Z,41.85
2023-01-31T01:26:24.545Z,41.83
2023-01-31T01:28:53.158Z,36.63
2023-01-31T01:31:21.361Z,42.22
2023-01-31T01:33:49.615Z,38.42
2023-01-31T01:36:22.154Z,38.45
2023-01-31T01:38:49.624Z,39.63
2023-01-31T01:41:17.319Z,41.17
2023-01-31T01:43:53.742Z,41.38
2023-01-31T01:46:31.753Z,42.45
2023-01-31T01:49:23.288Z,38.63
2023-01-31T01:51:52.987Z,43.03
2023-01-31T01:54:26.056Z,38.92
2023-01-31T01:56:59.724Z,40.15
2023-01-31T01:59:42.923Z,40.13
2023-01-31T02:02:10.463Z,36.20
2023-01-31T02:04:40.698Z,39.00
2023-01-31T02:07:09.674Z,38.70
2023-01-31T02:09:52.912Z,37.90
2023-01-31T02:12:20.998Z,37.25
2023-01-31T02:14:49.422Z,35.38
2023-01-31T02:17:18.894Z,38.60
2023-01-31T02:20:06.446Z,37.60
2023-01-31T02:22:47.533Z,37.42
2023-01-31T02:25:19.858Z,33.65
2023-01-31T02:28:12.527Z,41.95
2023-01-31T02:31:07.711Z,33.78
2023-01-31T02:33:50.632Z,37.28
2023-01-31T02:36:18.240Z,39.55
2023-01-31T02:39:00.015Z,37.28
2023-01-31T02:41:42.323Z,36.80
2023-01-31T02:44:46.699Z,39.17
2023-01-31T02:47:38.701Z,37.17
2023-01-31T02:50:29.633Z,31.92
2023-01-31T02:53:00.207Z,41.13
2023-01-31T02:55:53.395Z,35.90
2023-01-31T02:58:23.214Z,36.83
2023-01-31T03:00:51.887Z,41.15
2023-01-31T03:03:26.856Z,38.22
2023-01-31T03:06:24.631Z,32.55
2023-01-31T03:09:11.864Z,35.58
2023-01-31T03:12:07.974Z,37.85
2023-01-31T03:14:40.943Z,34.78
2023-01-31T03:17:34.853Z,33.33
2023-01-31T03:20:31.223Z,33.05
2023-01-31T03:23:06.888Z,35.83
2023-01-31T03:25:37.249Z,35.45
2023-01-31T03:28:11.407Z,33.05
2023-01-31T03:31:02.254Z,34.08
2023-01-31T03:33:35.300Z,30.75
2023-01-31T03:36:20.191Z,30.98
2023-01-31T03:39:05.280Z,34.83
2023-01-31T03:42:02.259Z,31.13
2023-01-31T03:44:42.659Z,30.67
2023-01-31T03:47:30.333Z,32.80
2023-01-31T03:50:08.710Z,32.90
2023-01-31T03:52:40.966Z,30.73
2023-01-31T03:55:15.931Z,32.67
2023-01-31T03:57:46.082Z,30.63
2023-01-31T04:00:16.727Z,28.27
2023-01-31T04:02:54.981Z,30.40
2023-01-31T04:05:30.542Z,33.53
2023-01-31T04:07:59.623Z,29.83
2023-01-31T04:10:28.935Z,35.58
2023-01-31T04:12:56.276Z,36.03
2023-01-31T04:15:23.751Z,31.52
2023-01-31T04:17:51.123Z,32.92
2023-01-31T04:20:18.566Z,30.85
2023-01-31T04:22:46.092Z,30.90
2023-01-31T04:25:13.457Z,29.70
2023-01-31T04:27:40.861Z,29.25
2023-01-31T04:30:08.763Z,32.05
2023-01-31T04:32:36.593Z,32.50
2023-01-31T04:35:04.695Z,31.92
2023-01-31T04:37:32.251Z,31.13
2023-01-31T04:39:59.520Z,38.20
2023-01-31T04:42:26.839Z,28.10
2023-01-31T04:44:54.167Z,27.48
2023-01-31T04:47:21.610Z,26.65
2023-01-31T04:49:48.961Z,31.35
2023-01-31T04:52:16.325Z,33.00
2023-01-31T04:54:43.762Z,29.40
2023-01-31T04:57:11.124Z,29.27
2023-01-31T04:59:38.455Z,28.35
2023-01-31T05:02:06.265Z,36.80
2023-01-31T05:04:33.698Z,35.00
2023-01-31T05:07:01.066Z,26.65
2023-01-31T05:09:28.417Z,25.30
2023-01-31T05:11:55.735Z,28.25
2023-01-31T05:14:23.164Z,30.58
2023-01-31T05:16:50.599Z,25.58
2023-01-31T05:19:18.003Z,30.58
2023-01-31T05:22:00.625Z,26.60
2023-01-31T05:24:31.394Z,28.80
2023-01-31T05:27:01.489Z,35.58
2023-01-31T05:29:31.102Z,28.27
2023-01-31T05:32:00.716Z,29.15
2023-01-31T05:34:33.455Z,31.23
2023-01-31T05:37:02.426Z,26.83
2023-01-31T05:39:30.320Z,24.45
2023-01-31T05:41:57.648Z,27.77
2023-01-31T05:44:24.923Z,26.35
2023-01-31T05:46:52.244Z,26.25
2023-01-31T05:49:19.626Z,27.42
2023-01-31T05:51:46.980Z,27.30
2023-01-31T05:54:14.409Z,26.17
2023-01-31T05:56:41.704Z,26.40
2023-01-31T05:59:09.092Z,25.90
2023-01-31T06:01:36.539Z,19.35
2023-01-31T06:04:03.885Z,27.70
2023-01-31T06:06:31.227Z,25.35
2023-01-31T06:08:58.933Z,26.85
2023-01-31T06:11:26.429Z,23.30
2023-01-31T06:13:57.682Z,38.17
2023-01-31T06:16:25.361Z,59.45
2023-01-31T06:18:52.782Z,93.43
2023-01-31T06:21:20.166Z,94.65
2023-01-31T06:23:47.981Z,125.88
2023-01-31T06:26:15.319Z,119.53
2023-01-31T06:28:44.533Z,132.95
2023-01-31T06:31:13.742Z,126.25
2023-01-31T06:33:47.322Z,108.30
2023-01-31T06:36:18.860Z,108.05
2023-01-31T06:38:51.391Z,97.03
2023-01-31T06:41:21.544Z,108.65
2023-01-31T06:43:49.172Z,96.22
2023-01-31T06:46:17.016Z,80.60
2023-01-31T06:48:44.792Z,83.90
2023-01-31T06:51:12.153Z,84.38
2023-01-31T06:53:39.500Z,86.22
2023-01-31T06:56:07.704Z,79.88
2023-01-31T06:58:35.073Z,73.28
2023-01-31T07:01:10.633Z,70.57
2023-01-31T07:03:38.749Z,71.78
2023-01-31T07:06:07.267Z,127.63
2023-01-31T07:08:36.252Z,79.90
2023-01-31T07:11:04.771Z,68.15
2023-01-31T07:13:32.633Z,60.92
2023-01-31T07:16:00.048Z,58.70
2023-01-31T07:18:27.475Z,67.00
2023-01-31T07:20:54.989Z,62.65
2023-01-31T07:23:22.337Z,66.10
2023-01-31T07:25:49.680Z,58.58
2023-01-31T07:28:17.043Z,56.65
2023-01-31T07:30:46.221Z,64.78
2023-01-31T07:33:13.729Z,57.67
2023-01-31T07:35:43.455Z,59.28
2023-01-31T07:38:11.557Z,51.90
2023-01-31T07:40:40.181Z,54.10
2023-01-31T07:43:07.614Z,55.55
2023-01-31T07:45:35.278Z,54.80
2023-01-31T07:48:02.966Z,54.60
2023-01-31T07:50:30.809Z,47.45
2023-01-31T07:52:59.176Z,47.17
2023-01-31T07:55:26.924Z,45.63
2023-01-31T07:57:54.351Z,41.60
2023-01-31T08:00:40.642Z,46.28
2023-01-31T08:03:34.034Z,38.97
2023-01-31T08:06:03.777Z,45.85
2023-01-31T08:08:31.212Z,39.15
2023-01-31T08:10:58.647Z,36.85
2023-01-31T08:13:26.978Z,44.47
2023-01-31T08:15:54.494Z,43.67
2023-01-31T08:18:21.851Z,38.95
2023-01-31T08:20:49.781Z,31.58
2023-01-31T08:23:17.229Z,40.65
2023-01-31T08:25:44.709Z,37.10
2023-01-31T08:28:12.178Z,35.80
2023-01-31T08:30:41.604Z,35.95
2023-01-31T08:33:10.515Z,35.67
2023-01-31T08:35:38.303Z,26.80
2023-01-31T08:38:16.101Z,32.40
2023-01-31T08:40:44.345Z,29.48
2023-01-31T08:43:11.731Z,27.98
2023-01-31T08:45:39.288Z,37.28
2023-01-31T08:48:06.829Z,27.40
2023-01-31T08:50:34.198Z,39.20
2023-01-31T08:53:03.966Z,32.90
2023-01-31T08:55:34.603Z,28.92
2023-01-31T08:58:02.737Z,34.10
2023-01-31T09:00:30.500Z,31.35
2023-01-31T09:02:59.977Z,32.25
2023-01-31T09:05:29.203Z,33.03
2023-01-31T09:07:57.132Z,26.23
2023-01-31T09:10:24.863Z,26.00
2023-01-31T09:12:52.263Z,25.45
2023-01-31T09:15:20.168Z,25.35
2023-01-31T09:17:47.841Z,22.75
2023-01-31T09:20:15.115Z,24.10
2023-01-31T09:22:42.541Z,26.23
2023-01-31T09:25:10.374Z,21.38
2023-01-31T09:27:39.183Z,26.90
2023-01-31T09:30:08.322Z,22.23
2023-01-31T09:32:37.244Z,24.20
2023-01-31T09:35:04.903Z,20.48
2023-01-31T09:37:32.353Z,23.83
2023-01-31T09:39:59.648Z,27.08
2023-01-31T09:42:33.789Z,26.73
2023-01-31T09:45:32.070Z,28.70
2023-01-31T09:48:02.256Z,29.67
2023-01-31T09:50:45.232Z,26.48
2023-01-31T09:53:21.804Z,19.83
2023-01-31T09:56:16.046Z,25.23
2023-01-31T09:58:46.159Z,22.30
2023-01-31T10:01:28.213Z,28.23
2023-01-31T10:06:29.291Z,23.60
2023-01-31T10:09:03.190Z,22.98
2023-01-31T10:11:43.333Z,27.10
2023-01-31T10:14:33.115Z,25.92
2023-01-31T10:17:08.998Z,28.98
2023-01-31T10:20:03.018Z,24.05
2023-01-31T10:22:42.994Z,27.15
2023-01-31T10:25:21.148Z,22.48
2023-01-31T10:28:00.377Z,23.20
2023-01-31T10:30:45.655Z,21.48
2023-01-31T10:33:48.064Z,28.25
2023-01-31T10:36:25.167Z,26.00
2023-01-31T10:39:14.874Z,23.83
2023-01-31T10:41:51.385Z,18.60
2023-01-31T10:44:35.935Z,27.52
2023-01-31T10:47:08.075Z,24.75
2023-01-31T10:49:35.963Z,31.00
2023-01-31T10:52:34.008Z,28.13
2023-01-31T10:55:23.236Z,44.42
2023-01-31T10:57:51.510Z,46.85
2023-01-31T11:00:26.784Z,29.58
2023-01-31T11:02:54.274Z,35.17
2023-01-31T11:05:24.373Z,38.22
2023-01-31T11:07:52.043Z,36.10
2023-01-31T11:10:28.558Z,39.85
2023-01-31T11:15:25.237Z,40.72
2023-01-31T11:17:53.585Z,30.88
2023-01-31T11:20:36.531Z,27.95
2023-01-31T11:23:06.609Z,32.88
2023-01-31T11:25:34.596Z,31.70
2023-01-31T11:28:05.192Z,27.60
2023-01-31T11:30:36.241Z,31.58
2023-01-31T11:33:03.673Z,28.67
2023-01-31T11:35:33.368Z,34.13
2023-01-31T11:38:04.102Z,31.42
2023-01-31T11:40:33.195Z,22.27
2023-01-31T11:43:02.002Z,31.10
2023-01-31T11:45:36.130Z,24.67
2023-01-31T11:48:14.902Z,22.98
2023-01-31T11:50:52.188Z,26.77
2023-01-31T11:53:25.948Z,26.50
2023-01-31T11:55:57.276Z,30.13
2023-01-31T11:58:37.026Z,24.38
2023-01-31T12:01:16.795Z,23.10
2023-01-31T12:04:02.703Z,21.15
2023-01-31T12:06:40.110Z,20.92
2023-01-31T12:09:22.696Z,25.67
2023-01-31T12:11:58.558Z,23.58
2023-01-31T12:14:39.561Z,22.15
2023-01-31T12:17:12.231Z,22.90
2023-01-31T12:19:59.000Z,18.30
2023-01-31T12:22:47.042Z,25.45
2023-01-31T12:25:31.923Z,16.33
2023-01-31T12:28:02.352Z,19.17
2023-01-31T12:30:55.119Z,24.98
2023-01-31T12:33:49.216Z,23.60
2023-01-31T12:36:30.297Z,23.15
2023-01-31T12:39:09.378Z,20.42
2023-01-31T12:42:03.646Z,22.58
2023-01-31T12:45:15.468Z,23.30
2023-01-31T12:48:10.419Z,22.65
2023-01-31T12:50:51.911Z,20.63
2023-01-31T12:53:43.740Z,22.23
2023-01-31T12:56:23.274Z,18.10
2023-01-31T12:59:02.933Z,18.52
2023-01-31T13:01:51.446Z,14.20
2023-01-31T13:04:21.717Z,16.90
2023-01-31T13:06:54.732Z,14.35
2023-01-31T13:09:26.946Z,19.85
2023-01-31T13:12:09.635Z,16.75
2023-01-31T13:14:41.919Z,17.05
2023-01-31T13:17:13.635Z,15.73
2023-01-31T13:19:52.175Z,14.77
2023-01-31T13:22:30.298Z,15.32
2023-01-31T13:25:33.505Z,16.45
2023-01-31T13:28:12.792Z,16.67
2023-01-31T13:30:48.932Z,15.35
2023-01-31T13:33:35.563Z,14.45
2023-01-31T13:36:15.748Z,14.80
2023-01-31T13:38:44.794Z,13.27
2023-01-31T13:41:33.504Z,17.58
2023-01-31T13:44:02.762Z,17.83
2023-01-31T13:46:43.111Z,16.83
2023-01-31T13:49:28.308Z,12.52
2023-01-31T13:52:01.981Z,14.93
2023-01-31T13:54:52.010Z,19.83
2023-01-31T13:57:33.647Z,15.18
2023-01-31T14:00:34.919Z,13.68
2023-01-31T14:03:10.382Z,13.98
2023-01-31T14:05:49.195Z,13.75
2023-01-31T14:08:39.133Z,14.77
2023-01-31T14:11:18.948Z,12.52
2023-01-31T14:14:10.031Z,13.30
2023-01-31T14:16:43.404Z,16.17
2023-01-31T14:19:19.751Z,13.45
2023-01-31T14:22:03.139Z,12.57
2023-01-31T14:24:53.380Z,11.57
2023-01-31T14:27:39.491Z,11.48
2023-01-31T14:30:07.096Z,15.60
2023-01-31T14:33:02.904Z,16.48
2023-01-31T14:35:51.107Z,14.02
2023-01-31T14:38:43.152Z,13.52
2023-01-31T14:41:52.734Z,13.07
2023-01-31T14:44:45.094Z,16.17
2023-01-31T14:47:31.665Z,15.50
2023-01-31T14:50:46.451Z,12.48
2023-01-31T14:53:55.706Z,12.77
2023-01-31T14:56:38.185Z,12.15
2023-01-31T14:59:19.019Z,15.40
2023-01-31T15:01:47.196Z,17.13
2023-01-31T15:04:22.233Z,14.85
2023-01-31T15:06:52.525Z,14.02
2023-01-31T15:09:24.498Z,15.25
2023-01-31T15:11:56.389Z,12.27
2023-01-31T15:14:36.036Z,14.38
2023-01-31T15:17:06.833Z,14.15
2023-01-31T15:19:46.919Z,14.50
2023-01-31T15:22:18.076Z,16.80
2023-01-31T15:24:49.156Z,16.02
2023-01-31T15:27:16.389Z,11.85
2023-01-31T15:29:56.306Z,14.77
2023-01-31T15:32:33.560Z,13.20
2023-01-31T15:35:22.878Z,9.98
2023-01-31T15:38:02.754Z,12.38
2023-01-31T15:40:30.913Z,12.15
2023-01-31T15:43:18.302Z,17.35
2023-01-31T15:45:47.744Z,15.15
2023-01-31T15:48:17.009Z,15.23
2023-01-31T15:50:51.937Z,11.48
2023-01-31T15:53:23.555Z,13.25
2023-01-31T15:55:56.982Z,11.73
2023-01-31T15:58:27.479Z,14.38
2023-01-31T16:00:57.493Z,14.40
2023-01-31T16:03:27.973Z,17.75
2023-01-31T16:05:57.852Z,19.08
2023-01-31T16:08:36.187Z,18.88
2023-01-31T16:11:06.045Z,17.02
2023-01-31T16:13:39.614Z,16.05
2023-01-31T16:16:14.302Z,15.70
2023-01-31T16:18:47.498Z,16.35
2023-01-31T16:21:33.587Z,15.40
2023-01-31T16:24:00.977Z,17.42
2023-01-31T16:26:33.975Z,14.55
2023-01-31T16:29:08.038Z,17.80
2023-01-31T16:31:45.085Z,16.05
2023-01-31T16:34:31.934Z,17.38
2023-01-31T16:37:07.219Z,19.20
2023-01-31T16:39:46.615Z,20.42
2023-01-31T16:42:21.137Z,16.13
2023-01-31T16:44:49.559Z,18.33
2023-01-31T16:47:34.351Z,18.35
2023-01-31T16:50:24.713Z,20.08
2023-01-31T16:53:19.317Z,21.63
2023-01-31T16:56:06.712Z,18.63
2023-01-31T16:58:42.959Z,15.90
2023-01-31T17:01:15.820Z,19.05
2023-01-31T17:03:43.547Z,18.23
2023-01-31T17:06:19.586Z,21.23
2023-01-31T17:08:47.025Z,18.33
2023-01-31T17:11:34.083Z,23.70
2023-01-31T17:14:04.491Z,18.70
2023-01-31T17:16:31.882Z,23.80
2023-01-31T17:18:59.310Z,19.83
2023-01-31T17:21:28.380Z,22.65
2023-01-31T17:23:55.712Z,26.52
2023-01-31T17:26:24.020Z,27.38
2023-01-31T17:29:01.489Z,52.42
2023-01-31T17:31:31.426Z,35.22
2023-01-31T17:33:59.011Z,39.15
2023-01-31T17:36:26.383Z,28.42
2023-01-31T17:38:53.619Z,32.67
2023-01-31T17:41:24.575Z,28.58
2023-01-31T17:43:52.233Z,33.03
2023-01-31T17:46:20.063Z,28.08
2023-01-31T17:48:47.510Z,27.52
2023-01-31T17:51:14.925Z,28.17
2023-01-31T17:53:49.921Z,28.90
2023-01-31T17:56:18.691Z,22.25
2023-01-31T17:58:46.130Z,24.15
2023-01-31T18:01:14.403Z,26.73
2023-01-31T18:03:42.427Z,32.40
2023-01-31T18:06:10.831Z,29.67
2023-01-31T18:08:38.883Z,28.10
2023-01-31T18:11:08.324Z,28.42
2023-01-31T18:13:38.127Z,30.80
2023-01-31T18:16:14.882Z,30.73
2023-01-31T18:18:45.633Z,33.70
2023-01-31T18:21:18.958Z,35.85
2023-01-31T18:23:51.223Z,28.80
2023-01-31T18:26:19.178Z,23.83
2023-01-31T18:28:46.595Z,36.25
2023-01-31T18:31:15.843Z,25.90
2023-01-31T18:33:45.393Z,23.80
2023-01-31T18:36:16.081Z,29.00
2023-01-31T18:38:45.262Z,25.50
2023-01-31T18:41:14.784Z,26.17
2023-01-31T18:43:43.106Z,32.00
2023-01-31T18:46:11.273Z,30.35
2023-01-31T18:48:40.458Z,26.63
2023-01-31T18:51:11.659Z,31.67
2023-01-31T18:53:41.405Z,23.88
2023-01-31T18:56:12.835Z,27.13
2023-01-31T18:58:41.605Z,32.13
2023-01-31T19:01:14.781Z,27.65
2023-01-31T19:03:43.002Z,33.67
2023-01-31T19:06:13.360Z,29.73
2023-01-31T19:08:41.359Z,29.90
2023-01-31T19:11:13.939Z,23.95
2023-01-31T19:13:42.473Z,29.15
2023-01-31T19:16:19.093Z,32.28
2023-01-31T19:18:47.261Z,27.55
2023-01-31T19:21:25.315Z,48.25
2023-01-31T19:23:56.051Z,47.17
2023-01-31T19:26:24.655Z,64.55
2023-01-31T19:28:52.501Z,55.78
2023-01-31T19:31:22.630Z,64.03
2023-01-31T19:33:52.297Z,64.28
2023-01-31T19:36:22.622Z,74.53
2023-01-31T19:38:50.725Z,59.10
2023-01-31T19:41:20.975Z,65.05
2023-01-31T19:43:50.272Z,69.10
2023-01-31T19:46:18.577Z,66.78
2023-01-31T19:48:46.192Z,64.15
2023-01-31T19:51:15.758Z,53.83
2023-01-31T19:53:45.053Z,57.42
2023-01-31T19:56:12.707Z,63.20
2023-01-31T19:58:40.532Z,63.30
2023-01-31T20:01:13.094Z,63.15
2023-01-31T20:03:40.563Z,58.67
2023-01-31T20:06:13.368Z,63.45
2023-01-31T20:08:41.056Z,52.63
2023-01-31T20:11:10.940Z,52.03
2023-01-31T20:13:38.366Z,53.63
2023-01-31T20:16:08.924Z,54.72
2023-01-31T20:18:37.878Z,42.58
2023-01-31T20:21:06.425Z,43.03
2023-01-31T20:23:33.949Z,57.53
2023-01-31T20:26:01.405Z,54.70
2023-01-31T20:28:28.728Z,65.22
2023-01-31T20:30:56.126Z,55.17
2023-01-31T20:33:24.007Z,52.13
2023-01-31T20:35:51.380Z,50.80
2023-01-31T20:38:18.942Z,51.65
2023-01-31T20:40:50.436Z,49.13
2023-01-31T20:43:18.969Z,55.03
2023-01-31T20:45:46.544Z,48.72
2023-01-31T20:48:14.395Z,50.05
2023-01-31T20:50:41.739Z,48.95
2023-01-31T20:53:18.636Z,42.90
2023-01-31T20:55:47.013Z,52.95
2023-01-31T20:58:14.356Z,49.58
2023-01-31T21:00:41.668Z,44.10
2023-01-31T21:03:08.961Z,42.97
2023-01-31T21:05:38.856Z,41.05
2023-01-31T21:08:06.454Z,47.00
2023-01-31T21:10:33.832Z,50.60
2023-01-31T21:13:01.073Z,44.25
2023-01-31T21:15:28.954Z,45.63
2023-01-31T21:17:56.491Z,52.55
2023-01-31T21:20:24.059Z,47.63
2023-01-31T21:22:51.492Z,45.35
2023-01-31T21:25:18.794Z,41.33
2023-01-31T21:27:49.831Z,49.83
2023-01-31T21:30:17.918Z,40.67
2023-01-31T21:32:46.511Z,55.15
2023-01-31T21:35:14.790Z,52.20
2023-01-31T21:37:42.099Z,50.85
2023-01-31T21:40:10.085Z,46.83
2023-01-31T21:42:40.577Z,47.22
2023-01-31T21:45:10.169Z,40.17
2023-01-31T21:47:57.689Z,35.15
2023-01-31T21:50:25.603Z,43.22
2023-01-31T21:52:52.891Z,37.97
2023-01-31T21:55:22.471Z,38.85
2023-01-31T21:57:49.767Z,47.20
2023-01-31T22:00:17.661Z,46.72
2023-01-31T22:02:44.913Z,36.25
2023-01-31T22:05:12.299Z,43.97
2023-01-31T22:07:40.463Z,52.55
2023-01-31T22:10:07.978Z,37.65
2023-01-31T22:12:35.240Z,46.88
2023-01-31T22:15:02.589Z,42.53
2023-01-31T22:17:29.878Z,36.95
2023-01-31T22:19:57.204Z,36.13
2023-01-31T22:22:24.593Z,44.03
2023-01-31T22:24:51.974Z,56.28
2023-01-31T22:27:19.299Z,50.03
2023-01-31T22:29:46.625Z,52.15
2023-01-31T22:32:13.948Z,54.63
2023-01-31T22:34:41.375Z,49.35
2023-01-31T22:37:08.714Z,47.25
2023-01-31T22:39:36.124Z,41.42
2023-01-31T22:42:03.515Z,40.90
2023-01-31T22:44:30.807Z,57.45
2023-01-31T22:46:58.072Z,38.78
2023-01-31T22:49:25.349Z,41.45
2023-01-31T22:51:52.682Z,43.83
2023-01-31T22:54:20.811Z,44.72
2023-01-31T22:56:48.422Z,40.72
2023-01-31T22:59:15.764Z,40.78
2023-01-31T23:01:43.176Z,42.80
2023-01-31T23:04:11.158Z,47.83
2023-01-31T23:06:39.227Z,37.13
2023-01-31T23:09:06.615Z,41.35
2023-01-31T23:11:34.076Z,35.90
2023-01-31T23:14:01.458Z,42.78
2023-01-31T23:16:47.499Z,39.50
2023-01-31T23:19:16.422Z,40.05
2023-01-31T23:21:44.722Z,37.95
2023-01-31T23:24:14.586Z,43.80
2023-01-31T23:26:43.380Z,36.35
2023-01-31T23:29:10.964Z,37.92
2023-01-31T23:31:38.641Z,40.33
2023-01-31T23:34:07.479Z,43.45
2023-01-31T23:36:35.322Z,40.22
2023-01-31T23:39:02.649Z,42.53
2023-01-31T23:41:30.076Z,37.92
2023-01-31T23:43:57.353Z,35.20
2023-01-31T23:46:24.791Z,42.00
2023-01-31T23:48:52.204Z,43.55
2023-01-31T23:51:19.557Z,37.08
2023-01-31T23:53:46.920Z,29.98
2023-01-31T23:56:14.211Z,41.03
2023-01-31T23:58:41.483Z,41.83
